createdAt,value
2023-05-11T00:02:02.138Z,100.00
2023-05-11T00:04:29.128Z,100.00
2023-05-11T00:06:59.239Z,100.00
2023-05-11T00:09:26.723Z,100.00
2023-05-11T00:11:56.710Z,100.00
2023-05-11T00:14:23.746Z,100.00
2023-05-11T00:16:55.736Z,100.00
2023-05-11T00:19:22.456Z,100.00
2023-05-11T00:21:49.183Z,100.00
2023-05-11T00:24:16.253Z,100.00
2023-05-11T00:26:43.380Z,100.00
2023-05-11T00:29:18.954Z,100.00
2023-05-11T00:31:49.547Z,100.00
2023-05-11T00:34:19.338Z,100.00
2023-05-11T00:36:49.647Z,100.00
2023-05-11T00:39:22.704Z,100.00
2023-05-11T00:41:49.522Z,100.00
2023-05-11T00:44:18.635Z,100.00
2023-05-11T00:46:47.707Z,100.00
2023-05-11T00:49:21.622Z,100.00
2023-05-11T00:51:48.769Z,100.00
2023-05-11T00:54:16.251Z,100.00
2023-05-11T00:56:43.486Z,100.00
2023-05-11T00:59:19.276Z,100.00
2023-05-11T01:01:46.497Z,100.00
2023-05-11T01:04:19.289Z,100.00
2023-05-11T01:07:31.219Z,100.00
2023-05-11T01:10:42.359Z,100.00
2023-05-11T01:14:13.632Z,100.00
2023-05-11T01:16:49.453Z,100.00
2023-05-11T01:19:44.849Z,100.00
2023-05-11T01:23:19.031Z,100.00
2023-05-11T01:26:16.174Z,100.00
2023-05-11T01:29:19.651Z,100.00
2023-05-11T01:31:58.813Z,100.00
2023-05-11T01:34:36.164Z,100.00
2023-05-11T01:37:27.930Z,100.00
2023-05-11T01:40:20.966Z,100.00
2023-05-11T01:43:19.445Z,100.00
2023-05-11T01:45:56.859Z,100.00
2023-05-11T01:48:35.621Z,100.00
2023-05-11T01:51:09.736Z,100.00
2023-05-11T01:53:48.591Z,100.00
2023-05-11T01:56:19.950Z,100.00
2023-05-11T01:59:00.944Z,100.00
2023-05-11T02:01:30.634Z,100.00
2023-05-11T02:04:06.478Z,100.00
2023-05-11T02:06:38.357Z,100.00
2023-05-11T02:09:18.841Z,100.00
2023-05-11T02:11:49.472Z,100.00
2023-05-11T02:14:21.747Z,100.00
2023-05-11T02:16:51.896Z,100.00
2023-05-11T02:19:21.565Z,100.00
2023-05-11T02:21:57.358Z,100.00
2023-05-11T02:24:28.641Z,100.00
2023-05-11T02:27:08.038Z,100.00
2023-05-11T02:29:35.280Z,100.00
2023-05-11T02:32:22.725Z,100.00
2023-05-11T02:35:11.353Z,100.00
2023-05-11T02:37:47.252Z,100.00
2023-05-11T02:40:34.020Z,100.00
2023-05-11T02:43:11.776Z,100.00
2023-05-11T02:45:48.857Z,100.00
2023-05-11T02:48:30.642Z,100.00
2023-05-11T02:51:02.699Z,100.00
2023-05-11T02:53:35.041Z,100.00
2023-05-11T02:56:06.358Z,100.00
2023-05-11T02:58:33.738Z,100.00
2023-05-11T03:01:01.371Z,100.00
2023-05-11T03:03:28.993Z,100.00
2023-05-11T03:05:55.912Z,100.00
2023-05-11T03:08:22.740Z,100.00
2023-05-11T03:10:52.058Z,100.00
2023-05-11T03:13:26.776Z,100.00
2023-05-11T03:16:11.842Z,100.00
2023-05-11T03:18:43.239Z,100.00
2023-05-11T03:21:21.983Z,100.00
2023-05-11T03:24:00.590Z,100.00
2023-05-11T03:26:30.537Z,100.00
2023-05-11T03:29:07.030Z,100.00
2023-05-11T03:31:34.120Z,100.00
2023-05-11T03:34:06.360Z,100.00
2023-05-11T03:36:38.015Z,100.00
2023-05-11T03:39:14.475Z,100.00
2023-05-11T03:41:56.870Z,100.00
2023-05-11T03:44:37.723Z,100.00
2023-05-11T03:47:10.506Z,100.00
2023-05-11T03:52:25.713Z,100.00
2023-05-11T03:54:55.323Z,100.00
2023-05-11T03:57:29.394Z,100.00
2023-05-11T04:00:12.472Z,100.00
2023-05-11T04:02:46.582Z,100.00
2023-05-11T04:05:14.650Z,100.00
2023-05-11T04:07:44.875Z,100.00
2023-05-11T04:10:14.803Z,100.00
2023-05-11T04:12:42.824Z,100.00
2023-05-11T04:15:21.042Z,100.00
2023-05-11T04:17:48.263Z,100.00
2023-05-11T04:20:24.173Z,100.00
2023-05-11T04:22:51.149Z,100.00
2023-05-11T04:25:23.764Z,100.00
2023-05-11T04:27:57.498Z,100.00
2023-05-11T04:30:24.530Z,100.00
2023-05-11T04:33:02.748Z,100.00
2023-05-11T04:35:29.794Z,100.00
2023-05-11T04:37:57.945Z,100.00
2023-05-11T04:40:35.330Z,100.00
2023-05-11T04:43:02.319Z,100.00
2023-05-11T04:45:32.127Z,100.00
2023-05-11T04:56:15.514Z,100.00
2023-05-11T04:58:50.299Z,100.00
2023-05-11T05:06:50.899Z,100.00
2023-05-11T05:26:32.809Z,100.00
2023-05-11T05:48:49.248Z,100.00
2023-05-11T05:51:24.635Z,100.00
2023-05-11T05:54:01.781Z,100.00
2023-05-11T05:56:30.885Z,100.00
2023-05-11T05:59:03.653Z,100.00
2023-05-11T06:01:30.539Z,100.00
2023-05-11T06:04:02.919Z,100.00
2023-05-11T06:06:30.755Z,100.00
2023-05-11T06:09:00.546Z,100.00
2023-05-11T06:11:35.422Z,100.00
2023-05-11T06:14:03.239Z,100.00
2023-05-11T06:16:32.814Z,100.00
2023-05-11T06:18:59.896Z,100.00
2023-05-11T06:21:26.782Z,100.00
2023-05-11T06:23:56.505Z,100.00
2023-05-11T06:26:28.472Z,100.00
2023-05-11T06:28:58.251Z,100.00
2023-05-11T06:31:25.392Z,100.00
2023-05-11T06:33:58.851Z,100.00
2023-05-11T06:36:33.939Z,100.00
2023-05-11T06:39:09.152Z,100.00
2023-05-11T06:41:35.934Z,100.00
2023-05-11T06:44:02.858Z,100.00
2023-05-11T06:46:29.907Z,100.00
2023-05-11T06:49:00.931Z,100.00
2023-05-11T06:51:33.159Z,100.00
2023-05-11T06:54:03.305Z,100.00
2023-05-11T06:56:31.935Z,100.00
2023-05-11T06:59:01.113Z,100.00
2023-05-11T07:01:30.700Z,100.00
2023-05-11T07:04:18.617Z,100.00
2023-05-11T07:06:48.048Z,100.00
2023-05-11T07:09:15.519Z,100.00
2023-05-11T07:11:47.614Z,100.00
2023-05-11T07:14:18.764Z,100.00
2023-05-11T07:16:48.623Z,100.00
2023-05-11T07:19:16.085Z,100.00
2023-05-11T07:21:48.196Z,100.00
2023-05-11T07:24:18.194Z,100.00
2023-05-11T07:26:45.076Z,100.00
2023-05-11T07:29:27.965Z,100.00
2023-05-11T07:32:25.264Z,100.00
2023-05-11T07:34:56.574Z,100.00
2023-05-11T07:37:26.197Z,100.00
2023-05-11T07:39:56.891Z,100.00
2023-05-11T07:42:27.510Z,100.00
2023-05-11T07:45:00.296Z,100.00
2023-05-11T07:47:36.746Z,100.00
2023-05-11T07:50:17.025Z,100.00
2023-05-11T07:52:44.190Z,100.00
2023-05-11T07:55:13.404Z,100.00
2023-05-11T07:57:45.735Z,100.00
2023-05-11T08:00:16.699Z,100.00
2023-05-11T08:02:48.611Z,100.00
2023-05-11T08:05:19.896Z,100.00
2023-05-11T08:07:47.497Z,100.00
2023-05-11T08:10:14.642Z,100.00
2023-05-11T08:12:46.110Z,100.00
2023-05-11T08:15:24.721Z,100.00
2023-05-11T08:17:52.015Z,100.00
2023-05-11T08:20:19.207Z,100.00
2023-05-11T08:22:47.833Z,100.00
2023-05-11T08:25:22.690Z,100.00
2023-05-11T08:27:49.672Z,100.00
2023-05-11T08:30:25.125Z,100.00
2023-05-11T08:32:59.262Z,100.00
2023-05-11T08:35:33.726Z,100.00
2023-05-11T08:38:00.566Z,100.00
2023-05-11T08:40:31.445Z,100.00
2023-05-11T08:43:11.644Z,100.00
2023-05-11T08:45:48.024Z,100.00
2023-05-11T08:48:31.901Z,100.00
2023-05-11T08:51:00.031Z,100.00
2023-05-11T08:53:33.255Z,100.00
2023-05-11T08:56:02.086Z,100.00
2023-05-11T08:58:38.153Z,100.00
2023-05-11T09:01:12.508Z,100.00
2023-05-11T09:03:43.212Z,100.00
2023-05-11T09:06:28.865Z,100.00
2023-05-11T09:08:59.516Z,100.00
2023-05-11T09:11:30.895Z,100.00
2023-05-11T09:14:00.596Z,100.00
2023-05-11T09:16:36.858Z,100.00
2023-05-11T09:19:05.700Z,100.00
2023-05-11T09:21:33.286Z,100.00
2023-05-11T09:24:00.875Z,100.00
2023-05-11T09:26:34.180Z,100.00
2023-05-11T09:29:06.973Z,100.00
2023-05-11T09:31:56.535Z,100.00
2023-05-11T09:34:24.474Z,100.00
2023-05-11T09:37:00.153Z,100.00
2023-05-11T09:39:42.254Z,100.00
2023-05-11T09:42:34.042Z,100.00
2023-05-11T09:45:06.516Z,100.00
2023-05-11T09:47:42.362Z,100.00
2023-05-11T09:50:26.456Z,100.00
2023-05-11T09:53:06.776Z,100.00
2023-05-11T09:55:36.628Z,100.00
2023-05-11T09:58:13.929Z,100.00
2023-05-11T10:00:57.707Z,100.00
2023-05-11T10:03:29.695Z,100.00
2023-05-11T10:06:03.204Z,100.00
2023-05-11T10:08:34.632Z,100.00
2023-05-11T10:11:08.761Z,100.00
2023-05-11T10:13:39.995Z,100.00
2023-05-11T10:16:13.223Z,100.00
2023-05-11T10:18:43.433Z,100.00
2023-05-11T10:21:22.289Z,100.00
2023-05-11T10:23:58.393Z,100.00
2023-05-11T10:26:46.134Z,100.00
2023-05-11T10:29:14.465Z,100.00
2023-05-11T11:07:24.873Z,93.14
2023-05-11T11:09:57.959Z,92.16
2023-05-11T11:12:30.186Z,92.43
2023-05-11T11:15:16.376Z,92.41
2023-05-11T11:18:36.160Z,91.69
2023-05-11T11:21:09.006Z,88.45
2023-05-11T11:23:50.610Z,91.73
2023-05-11T11:26:55.495Z,88.45
2023-05-11T11:29:22.942Z,90.39
2023-05-11T11:31:49.983Z,92.58
2023-05-11T11:34:31.117Z,91.82
2023-05-11T11:37:09.869Z,92.27
2023-05-11T11:39:51.997Z,90.80
2023-05-11T11:42:34.936Z,88.94
2023-05-11T11:45:34.746Z,89.67
2023-05-11T11:48:28.314Z,86.86
2023-05-11T11:51:14.470Z,88.90
2023-05-11T11:53:50.591Z,86.16
2023-05-11T11:56:23.981Z,78.59
2023-05-11T11:58:50.761Z,78.78
2023-05-11T12:01:40.083Z,78.16
2023-05-11T12:04:39.281Z,74.29
2023-05-11T12:07:22.047Z,74.90
2023-05-11T12:09:51.861Z,79.22
2023-05-11T12:12:28.840Z,81.83
2023-05-11T12:15:40.957Z,82.42
2023-05-11T12:18:22.379Z,78.31
2023-05-11T12:20:52.647Z,78.17
2023-05-11T12:23:19.674Z,72.67
2023-05-11T12:26:26.904Z,68.84
2023-05-11T12:29:18.498Z,69.83
2023-05-11T12:31:47.291Z,70.18
2023-05-11T12:34:24.562Z,67.95
2023-05-11T12:36:58.953Z,68.20
2023-05-11T12:39:33.119Z,66.75
2023-05-11T12:42:09.300Z,63.25
2023-05-11T12:44:40.731Z,70.26
2023-05-11T12:47:10.836Z,71.08
2023-05-11T12:49:37.908Z,67.42
2023-05-11T12:52:10.303Z,64.19
2023-05-11T12:54:51.707Z,63.55
2023-05-11T12:57:33.781Z,65.71
2023-05-11T13:00:19.977Z,66.68
2023-05-11T13:03:00.376Z,69.10
2023-05-11T13:05:29.453Z,67.50
2023-05-11T13:08:11.425Z,66.99
2023-05-11T13:10:38.279Z,66.03
2023-05-11T13:13:07.746Z,66.22
2023-05-11T13:15:54.150Z,67.33
2023-05-11T13:19:27.798Z,66.42
2023-05-11T13:22:06.415Z,67.74
2023-05-11T13:24:39.564Z,68.65
2023-05-11T13:27:18.138Z,70.30
2023-05-11T13:29:47.392Z,69.33
2023-05-11T13:32:16.860Z,69.09
2023-05-11T13:34:43.937Z,69.54
2023-05-11T13:37:13.733Z,69.39
2023-05-11T13:39:40.677Z,70.26
2023-05-11T13:42:10.651Z,67.99
2023-05-11T13:44:40.879Z,69.67
2023-05-11T13:47:16.959Z,70.98
2023-05-11T13:50:17.564Z,71.34
2023-05-11T13:52:44.510Z,67.66
2023-05-11T13:55:14.294Z,69.37
2023-05-11T13:57:41.136Z,69.52
2023-05-11T14:00:17.965Z,68.88
2023-05-11T14:06:01.557Z,63.17
2023-05-11T14:08:31.402Z,64.50
2023-05-11T14:10:58.446Z,66.25
2023-05-11T14:13:26.004Z,70.96
2023-05-11T14:15:53.997Z,65.00
2023-05-11T14:18:40.353Z,67.39
2023-05-11T14:21:09.835Z,66.83
2023-05-11T14:23:44.971Z,64.60
2023-05-11T14:26:17.345Z,64.78
2023-05-11T14:28:44.241Z,62.64
2023-05-11T14:31:30.451Z,61.19
2023-05-11T14:34:14.208Z,59.03
2023-05-11T14:36:41.497Z,56.28
2023-05-11T14:39:08.302Z,56.36
2023-05-11T14:41:48.941Z,56.11
2023-05-11T14:44:19.159Z,59.80
2023-05-11T14:46:46.239Z,59.03
2023-05-11T14:49:18.738Z,62.33
2023-05-11T14:51:51.270Z,64.86
2023-05-11T14:54:24.892Z,66.96
2023-05-11T14:56:57.596Z,68.37
2023-05-11T14:59:30.677Z,73.42
2023-05-11T15:02:00.872Z,74.12
2023-05-11T15:04:28.159Z,77.80
2023-05-11T15:06:58.354Z,75.46
2023-05-11T15:10:13.567Z,77.08
2023-05-11T15:12:52.905Z,78.29
2023-05-11T15:15:33.520Z,79.16
2023-05-11T15:18:06.493Z,79.43
2023-05-11T15:20:38.607Z,79.81
2023-05-11T15:23:17.196Z,79.23
2023-05-11T15:25:49.252Z,79.10
2023-05-11T15:28:28.849Z,80.17
2023-05-11T15:31:24.326Z,79.40
2023-05-11T15:33:51.338Z,73.59
2023-05-11T15:36:18.395Z,72.26
2023-05-11T15:38:51.611Z,68.02
2023-05-11T15:41:18.457Z,69.99
2023-05-11T15:43:45.163Z,67.70
2023-05-11T15:46:12.401Z,68.59
2023-05-11T15:48:42.421Z,65.59
2023-05-11T15:51:09.646Z,68.10
2023-05-11T15:53:48.770Z,66.34
2023-05-11T15:56:32.832Z,69.29
2023-05-11T15:59:01.990Z,70.26
2023-05-11T16:01:29.132Z,71.12
2023-05-11T16:03:59.748Z,71.08
2023-05-11T16:09:27.187Z,71.51
2023-05-11T16:11:59.449Z,73.09
2023-05-11T16:14:26.903Z,73.00
2023-05-11T16:16:57.195Z,74.36
2023-05-11T16:19:33.283Z,73.95
2023-05-11T16:22:00.152Z,77.69
2023-05-11T16:24:31.642Z,78.92
2023-05-11T16:27:07.682Z,83.78
2023-05-11T16:29:34.798Z,84.92
2023-05-11T16:32:01.912Z,86.08
2023-05-11T16:34:28.991Z,88.39
2023-05-11T16:37:01.577Z,89.11
2023-05-11T16:39:28.504Z,90.79
2023-05-11T16:42:07.123Z,89.65
2023-05-11T16:44:42.756Z,88.06
2023-05-11T16:47:11.531Z,85.89
2023-05-11T16:49:41.450Z,90.01
2023-05-11T16:52:08.225Z,91.44
2023-05-11T16:54:35.120Z,92.18
2023-05-11T16:57:07.971Z,93.47
2023-05-11T16:59:42.475Z,95.86
2023-05-11T17:02:10.520Z,99.08
2023-05-11T17:04:40.925Z,100.00
2023-05-11T17:07:11.097Z,100.00
2023-05-11T17:09:40.446Z,100.00
2023-05-11T17:12:17.294Z,100.00
2023-05-11T17:14:44.389Z,100.00
2023-05-11T17:17:11.615Z,100.00
2023-05-11T17:19:41.125Z,100.00
2023-05-11T17:22:13.475Z,100.00
2023-05-11T17:24:48.855Z,100.00
2023-05-11T17:27:16.311Z,100.00
2023-05-11T17:29:59.180Z,100.00
2023-05-11T17:32:26.924Z,100.00
2023-05-11T17:34:57.520Z,100.00
2023-05-11T17:37:31.746Z,100.00
2023-05-11T17:40:18.197Z,100.00
2023-05-11T17:43:08.129Z,100.00
2023-05-11T17:45:41.058Z,100.00
2023-05-11T17:51:18.510Z,100.00
2023-05-11T17:54:32.057Z,100.00
2023-05-11T17:57:11.575Z,100.00
2023-05-11T17:59:50.731Z,100.00
2023-05-11T18:02:18.980Z,100.00
2023-05-11T18:04:49.314Z,100.00
2023-05-11T18:07:22.525Z,100.00
2023-05-11T18:09:49.399Z,100.00
2023-05-11T18:12:19.625Z,100.00
2023-05-11T18:15:18.808Z,100.00
2023-05-11T18:17:49.448Z,100.00
2023-05-11T18:20:18.201Z,100.00
2023-05-11T18:22:47.848Z,100.00
2023-05-11T18:25:23.416Z,100.00
2023-05-11T18:27:51.478Z,100.00
2023-05-11T18:30:21.387Z,100.00
2023-05-11T18:32:48.480Z,100.00
2023-05-11T18:35:19.054Z,100.00
2023-05-11T18:37:46.832Z,100.00
2023-05-11T18:40:20.281Z,100.00
2023-05-11T18:42:47.400Z,100.00
2023-05-11T18:45:19.669Z,100.00
2023-05-11T18:47:47.680Z,100.00
2023-05-11T18:50:17.211Z,100.00
2023-05-11T18:52:47.618Z,100.00
2023-05-11T18:55:18.454Z,100.00
2023-05-11T18:57:48.409Z,100.00
2023-05-11T19:00:16.313Z,100.00
2023-05-11T19:02:54.924Z,100.00
2023-05-11T19:05:33.234Z,100.00
2023-05-11T19:08:00.456Z,100.00
2023-05-11T19:10:29.075Z,100.00
2023-05-11T19:12:56.057Z,100.00
2023-05-11T19:15:22.862Z,100.00
2023-05-11T19:17:49.583Z,100.00
2023-05-11T19:20:17.178Z,100.00
2023-05-11T19:22:47.170Z,100.00
2023-05-11T19:25:18.636Z,100.00
2023-05-11T19:27:48.584Z,100.00
2023-05-11T19:30:19.292Z,100.00
2023-05-11T19:32:57.195Z,100.00
2023-05-11T19:35:24.862Z,100.00
2023-05-11T19:37:51.540Z,100.00
2023-05-11T19:43:08.381Z,100.00
2023-05-11T21:17:16.697Z,100.00
2023-05-11T21:31:10.454Z,100.00
2023-05-11T21:33:40.037Z,100.00
2023-05-11T21:36:09.635Z,100.00
2023-05-11T21:38:36.593Z,100.00
2023-05-11T21:41:06.474Z,100.00
2023-05-11T21:43:33.563Z,100.00
2023-05-11T21:46:03.072Z,100.00
2023-05-11T21:48:32.367Z,100.00
2023-05-11T21:51:01.756Z,100.00
2023-05-11T21:53:30.625Z,100.00
2023-05-11T21:56:20.660Z,100.00
2023-05-11T21:58:51.272Z,100.00
2023-05-11T22:01:23.958Z,100.00
2023-05-11T22:03:55.713Z,100.00
2023-05-11T22:06:22.876Z,100.00
2023-05-11T22:09:00.863Z,100.00
2023-05-11T22:11:33.783Z,99.81
2023-05-11T22:14:03.136Z,99.31
2023-05-11T22:16:37.729Z,100.00
2023-05-11T22:19:11.181Z,100.00
2023-05-11T22:21:39.872Z,100.00
2023-05-11T22:24:09.040Z,100.00
2023-05-11T22:26:38.746Z,99.74
2023-05-11T22:29:15.514Z,98.11
2023-05-11T22:31:46.176Z,98.61
2023-05-11T22:34:13.440Z,98.32
2023-05-11T22:37:10.248Z,99.14
2023-05-11T22:39:37.154Z,96.70
2023-05-11T22:42:09.469Z,96.54
2023-05-11T22:44:36.762Z,97.50
2023-05-11T22:47:04.961Z,96.45
2023-05-11T22:49:32.057Z,94.84
2023-05-11T22:51:59.637Z,96.24
2023-05-11T22:54:29.395Z,97.82
2023-05-11T22:57:03.543Z,98.52
2023-05-11T22:59:34.671Z,99.37
2023-05-11T23:02:13.940Z,98.94
2023-05-11T23:04:44.505Z,100.00
2023-05-11T23:07:12.830Z,100.00
2023-05-11T23:09:42.338Z,100.00
2023-05-11T23:12:11.649Z,100.00
2023-05-11T23:14:41.605Z,100.00
2023-05-11T23:17:13.177Z,100.00
2023-05-11T23:19:54.912Z,100.00
2023-05-11T23:22:28.037Z,100.00
2023-05-11T23:25:01.403Z,100.00
2023-05-11T23:27:28.620Z,100.00
2023-05-11T23:29:58.095Z,100.00
2023-05-11T23:32:25.074Z,100.00
2023-05-11T23:34:54.312Z,100.00
2023-05-11T23:37:22.315Z,100.00
2023-05-11T23:39:55.218Z,100.00
2023-05-11T23:42:22.551Z,100.00
2023-05-11T23:44:54.932Z,100.00
2023-05-11T23:47:24.773Z,100.00
2023-05-11T23:50:14.015Z,100.00
2023-05-11T23:52:46.464Z,100.00
2023-05-11T23:55:19.297Z,100.00
2023-05-11T23:57:46.612Z,100.00
